createdAt,value
2018-08-19T00:01:36.146Z,72.80
2018-08-19T00:04:40.559Z,72.60
2018-08-19T00:07:45.329Z,71.90
2018-08-19T00:10:57.504Z,73.30
2018-08-19T00:14:01.938Z,73.80
2018-08-19T00:17:06.418Z,74.50
2018-08-19T00:20:13.198Z,74.30
2018-08-19T00:23:17.606Z,75.30
2018-08-19T00:26:22.067Z,75.30
2018-08-19T00:29:33.407Z,75.20
2018-08-19T00:32:37.954Z,75.00
2018-08-19T00:35:42.498Z,74.80
2018-08-19T00:38:47.025Z,75.20
2018-08-19T00:41:51.506Z,74.90
2018-08-19T00:44:55.974Z,75.30
2018-08-19T00:48:00.470Z,75.00
2018-08-19T00:51:04.984Z,74.50
2018-08-19T00:54:09.438Z,73.50
2018-08-19T00:57:13.977Z,73.50
2018-08-19T01:00:18.491Z,74.20
2018-08-19T01:03:23.028Z,73.30
2018-08-19T01:06:27.655Z,73.10
2018-08-19T01:09:32.696Z,73.20
2018-08-19T01:12:37.219Z,73.10
2018-08-19T01:15:41.720Z,73.20
2018-08-19T01:18:47.074Z,74.00
2018-08-19T01:21:53.432Z,72.80
2018-08-19T01:24:57.890Z,73.10
2018-08-19T01:28:02.389Z,72.60
2018-08-19T01:31:07.007Z,72.40
2018-08-19T01:34:14.335Z,73.60
2018-08-19T01:37:18.827Z,74.10
2018-08-19T01:40:23.283Z,73.50
2018-08-19T01:43:27.805Z,73.30
2018-08-19T01:46:39.907Z,73.30
2018-08-19T01:49:44.362Z,73.90
2018-08-19T01:52:50.050Z,73.90
2018-08-19T01:55:54.502Z,73.90
2018-08-19T01:58:59.033Z,75.60
2018-08-19T02:02:05.050Z,75.00
2018-08-19T02:05:09.590Z,74.30
2018-08-19T02:08:14.032Z,73.90
2018-08-19T02:11:30.757Z,74.00
2018-08-19T02:14:35.265Z,75.00
2018-08-19T02:17:48.516Z,75.00
2018-08-19T02:20:52.959Z,75.10
2018-08-19T02:23:57.463Z,74.50
2018-08-19T02:27:01.917Z,74.30
2018-08-19T02:30:06.395Z,74.20
2018-08-19T02:33:10.828Z,74.70
2018-08-19T02:36:15.982Z,74.40
2018-08-19T02:39:20.415Z,73.90
2018-08-19T02:42:30.360Z,73.80
2018-08-19T02:45:34.792Z,74.50
2018-08-19T02:48:47.006Z,74.30
2018-08-19T02:51:51.508Z,74.30
2018-08-19T02:54:57.857Z,74.00
2018-08-19T02:58:07.545Z,74.70
2018-08-19T03:01:12.965Z,74.40
2018-08-19T03:04:17.390Z,74.80
2018-08-19T03:07:23.249Z,74.80
2018-08-19T03:10:27.679Z,75.10
2018-08-19T03:13:32.296Z,74.90
2018-08-19T03:16:36.924Z,74.30
2018-08-19T03:19:41.343Z,74.10
2018-08-19T03:22:45.812Z,75.70
2018-08-19T03:25:50.276Z,75.50
2018-08-19T03:28:54.721Z,75.20
2018-08-19T03:32:01.584Z,75.30
2018-08-19T03:35:13.041Z,74.50
2018-08-19T03:38:17.496Z,73.80
2018-08-19T03:41:21.918Z,74.30
2018-08-19T03:44:26.363Z,75.90
2018-08-19T03:47:30.893Z,75.20
2018-08-19T03:50:37.641Z,75.90
2018-08-19T03:53:43.055Z,75.90
2018-08-19T03:56:47.486Z,76.10
2018-08-19T03:59:51.966Z,75.90
2018-08-19T04:02:56.430Z,76.10
2018-08-19T04:06:01.324Z,76.30
2018-08-19T04:09:06.666Z,76.70
2018-08-19T04:12:14.770Z,77.10
2018-08-19T04:15:19.277Z,77.30
2018-08-19T04:18:28.643Z,77.20
2018-08-19T04:21:33.070Z,77.20
2018-08-19T04:24:37.596Z,77.00
2018-08-19T04:27:42.016Z,77.10
2018-08-19T04:30:46.446Z,77.60
2018-08-19T04:33:50.997Z,77.80
2018-08-19T04:36:55.493Z,77.40
2018-08-19T04:40:00.644Z,77.30
2018-08-19T04:43:05.087Z,76.90
2018-08-19T04:46:09.582Z,76.90
2018-08-19T04:49:15.363Z,76.90
2018-08-19T04:52:22.837Z,77.00
2018-08-19T04:55:27.358Z,76.90
2018-08-19T04:58:31.851Z,76.50
2018-08-19T05:01:36.388Z,77.20
2018-08-19T05:04:40.832Z,76.60
2018-08-19T05:07:45.276Z,76.50
2018-08-19T05:10:49.835Z,76.80
2018-08-19T05:13:54.310Z,76.60
2018-08-19T05:16:58.848Z,76.10
2018-08-19T05:20:15.622Z,76.00
2018-08-19T05:23:20.086Z,77.00
2018-08-19T05:26:24.518Z,77.30
2018-08-19T05:29:29.124Z,79.20
2018-08-19T05:32:33.571Z,77.40
2018-08-19T05:35:38.075Z,77.30
2018-08-19T05:38:43.662Z,79.80
2018-08-19T05:42:04.532Z,78.70
2018-08-19T05:45:09.059Z,76.60
2018-08-19T05:48:13.791Z,76.20
2018-08-19T05:51:18.260Z,74.60
2018-08-19T05:54:22.698Z,75.10
2018-08-19T05:57:28.766Z,74.30
2018-08-19T06:00:33.367Z,75.20
2018-08-19T06:03:37.894Z,75.40
2018-08-19T06:06:42.443Z,73.70
2018-08-19T06:09:46.905Z,74.70
2018-08-19T06:12:51.430Z,73.30
2018-08-19T06:15:56.045Z,72.70
2018-08-19T06:19:00.480Z,73.50
2018-08-19T06:22:05.026Z,70.30
2018-08-19T06:25:10.419Z,62.20
2018-08-19T06:28:14.954Z,59.20
2018-08-19T06:31:19.405Z,59.20
2018-08-19T06:34:23.841Z,58.10
2018-08-19T06:37:28.356Z,55.40
2018-08-19T06:40:32.810Z,54.20
2018-08-19T06:43:37.324Z,50.80
2018-08-19T06:46:41.848Z,51.00
2018-08-19T06:49:51.476Z,49.40
2018-08-19T06:52:56.676Z,48.20
2018-08-19T06:56:01.138Z,49.20
2018-08-19T06:59:06.145Z,48.40
2018-08-19T07:02:10.610Z,52.00
2018-08-19T07:05:15.130Z,53.70
2018-08-19T07:08:19.587Z,51.50
2018-08-19T07:11:24.106Z,52.80
2018-08-19T07:14:29.628Z,52.30
2018-08-19T07:17:34.124Z,53.90
2018-08-19T07:20:40.404Z,52.00
2018-08-19T07:23:44.912Z,51.80
2018-08-19T07:26:49.402Z,52.30
2018-08-19T07:29:55.026Z,52.30
2018-08-19T07:32:59.555Z,48.70
2018-08-19T07:36:04.029Z,49.80
2018-08-19T07:39:08.887Z,49.10
2018-08-19T07:42:13.835Z,47.30
2018-08-19T07:45:18.285Z,48.70
2018-08-19T07:48:22.725Z,47.90
2018-08-19T07:51:27.236Z,47.50
2018-08-19T07:54:31.743Z,48.20
2018-08-19T07:57:36.227Z,47.80
2018-08-19T08:00:41.518Z,46.50
2018-08-19T08:03:46.239Z,46.60
2018-08-19T08:06:50.710Z,46.80
2018-08-19T08:09:55.175Z,44.90
2018-08-19T08:13:04.632Z,46.10
2018-08-19T08:16:09.078Z,46.00
2018-08-19T08:19:13.580Z,44.80
2018-08-19T08:22:18.208Z,44.60
2018-08-19T08:25:22.709Z,47.20
2018-08-19T08:28:27.165Z,45.20
2018-08-19T08:31:31.887Z,44.70
2018-08-19T08:34:36.338Z,45.10
2018-08-19T08:37:43.270Z,45.10
2018-08-19T08:40:47.846Z,44.50
2018-08-19T08:43:52.234Z,45.00
2018-08-19T08:46:59.617Z,43.80
2018-08-19T08:50:04.093Z,42.50
2018-08-19T08:53:08.617Z,44.90
2018-08-19T08:56:16.660Z,45.10
2018-08-19T08:59:21.058Z,42.80
2018-08-19T09:02:25.583Z,40.80
2018-08-19T09:05:30.068Z,42.00
2018-08-19T09:08:34.531Z,42.20
2018-08-19T09:11:38.994Z,42.80
2018-08-19T09:14:44.139Z,42.80
2018-08-19T09:17:48.600Z,42.50
2018-08-19T09:20:53.107Z,43.20
2018-08-19T09:23:57.554Z,42.00
2018-08-19T09:27:01.977Z,42.60
2018-08-19T09:30:06.865Z,40.30
2018-08-19T09:33:12.635Z,41.70
2018-08-19T09:36:17.049Z,41.20
2018-08-19T09:39:21.594Z,41.10
2018-08-19T09:42:26.120Z,40.10
2018-08-19T09:45:30.826Z,41.40
2018-08-19T09:48:35.283Z,40.30
2018-08-19T09:51:39.730Z,39.50
2018-08-19T09:54:44.183Z,40.50
2018-08-19T09:57:53.870Z,39.90
2018-08-19T10:01:03.718Z,38.60
2018-08-19T10:04:13.345Z,39.80
2018-08-19T10:07:17.812Z,39.90
2018-08-19T10:10:22.995Z,39.90
2018-08-19T10:13:27.486Z,40.80
2018-08-19T10:16:45.586Z,40.50
2018-08-19T10:19:50.159Z,38.90
2018-08-19T10:22:56.168Z,38.30
2018-08-19T10:26:00.594Z,38.20
2018-08-19T10:29:05.102Z,38.80
2018-08-19T10:32:09.627Z,37.80
2018-08-19T10:35:17.259Z,37.40
2018-08-19T10:38:21.887Z,39.00
2018-08-19T10:41:26.315Z,38.00
2018-08-19T10:44:30.751Z,37.90
2018-08-19T10:47:35.389Z,36.80
2018-08-19T10:50:39.860Z,37.30
2018-08-19T10:53:45.130Z,37.60
2018-08-19T10:56:49.657Z,37.70
2018-08-19T10:59:58.166Z,38.60
2018-08-19T11:03:10.901Z,36.30
2018-08-19T11:06:15.569Z,38.00
2018-08-19T11:09:20.247Z,38.30
2018-08-19T11:12:24.794Z,36.40
2018-08-19T11:15:43.093Z,37.20
2018-08-19T11:18:48.787Z,36.10
2018-08-19T11:21:53.493Z,35.00
2018-08-19T11:24:57.898Z,35.80
2018-08-19T11:28:07.512Z,35.80
2018-08-19T11:31:26.169Z,34.80
2018-08-19T11:34:30.662Z,35.70
2018-08-19T11:37:35.103Z,35.40
2018-08-19T11:40:39.589Z,36.90
2018-08-19T11:43:45.225Z,36.40
2018-08-19T11:46:49.686Z,37.00
2018-08-19T11:49:54.109Z,37.00
2018-08-19T11:52:58.561Z,36.60
2018-08-19T11:56:03.025Z,36.00
2018-08-19T11:59:07.573Z,35.30
2018-08-19T12:02:17.921Z,35.50
2018-08-19T12:05:22.481Z,35.40
2018-08-19T12:08:26.934Z,36.10
2018-08-19T12:11:39.030Z,35.80
2018-08-19T12:14:43.538Z,35.20
2018-08-19T12:17:48.057Z,33.20
2018-08-19T12:20:52.474Z,34.90
2018-08-19T12:24:15.020Z,33.60
2018-08-19T12:27:22.599Z,34.80
2018-08-19T12:30:27.257Z,35.80
2018-08-19T12:33:31.781Z,33.40
2018-08-19T12:36:36.276Z,34.80
2018-08-19T12:39:40.834Z,34.40
2018-08-19T12:42:50.467Z,35.10
2018-08-19T12:45:54.903Z,36.00
2018-08-19T12:48:59.411Z,34.60
2018-08-19T12:52:03.928Z,35.60
2018-08-19T12:55:09.987Z,34.00
2018-08-19T12:58:14.464Z,34.80
2018-08-19T13:01:18.938Z,35.60
2018-08-19T13:04:23.443Z,35.50
2018-08-19T13:07:27.887Z,36.10
2018-08-19T13:10:37.909Z,35.80
2018-08-19T13:13:42.393Z,35.60
2018-08-19T13:16:46.910Z,34.20
2018-08-19T13:19:56.771Z,33.40
2018-08-19T13:23:02.525Z,32.90
2018-08-19T13:26:07.016Z,33.90
2018-08-19T13:29:11.471Z,34.40
2018-08-19T13:32:15.926Z,34.60
2018-08-19T13:35:20.701Z,35.50
2018-08-19T13:39:39.573Z,33.30
2018-08-19T13:42:44.049Z,33.30
2018-08-19T13:45:48.534Z,34.40
2018-08-19T13:48:53.673Z,35.10
2018-08-19T13:52:02.508Z,34.50
2018-08-19T13:55:10.161Z,34.90
2018-08-19T13:58:14.597Z,35.10
2018-08-19T14:01:19.269Z,35.30
2018-08-19T14:04:23.797Z,35.10
2018-08-19T14:07:28.322Z,32.80
2018-08-19T14:10:32.829Z,35.20
2018-08-19T14:13:37.472Z,34.90
2018-08-19T14:16:41.997Z,33.90
2018-08-19T14:19:46.525Z,32.60
2018-08-19T14:22:50.941Z,32.30
2018-08-19T14:25:55.459Z,31.90
2018-08-19T14:28:59.998Z,33.40
2018-08-19T14:32:04.486Z,33.30
2018-08-19T14:35:09.050Z,33.70
2018-08-19T14:38:13.462Z,34.00
2018-08-19T14:41:17.989Z,35.10
2018-08-19T14:44:22.527Z,33.80
2018-08-19T14:47:27.234Z,33.20
2018-08-19T14:50:31.675Z,33.80
2018-08-19T14:53:36.132Z,33.40
2018-08-19T14:56:40.538Z,32.60
2018-08-19T14:59:44.977Z,34.20
2018-08-19T15:02:49.476Z,34.10
2018-08-19T15:06:03.319Z,33.70
2018-08-19T15:09:08.251Z,33.50
2018-08-19T15:12:18.010Z,32.60
2018-08-19T15:15:22.507Z,34.50
2018-08-19T15:18:27.055Z,34.10
2018-08-19T15:21:31.494Z,34.20
2018-08-19T15:24:35.990Z,33.60
2018-08-19T15:27:45.466Z,32.20
2018-08-19T15:30:49.910Z,32.50
2018-08-19T15:33:54.597Z,34.10
2018-08-19T15:36:59.036Z,34.30
2018-08-19T15:40:03.481Z,35.00
2018-08-19T15:43:08.385Z,32.80
2018-08-19T15:46:12.914Z,33.60
2018-08-19T15:49:20.597Z,33.10
2018-08-19T15:52:25.037Z,31.90
2018-08-19T15:55:29.493Z,34.80
2018-08-19T15:58:33.993Z,35.40
2018-08-19T16:01:38.881Z,34.80
2018-08-19T16:04:43.341Z,34.70
2018-08-19T16:07:47.971Z,34.00
2018-08-19T16:10:52.496Z,34.60
2018-08-19T16:13:57.021Z,34.50
2018-08-19T16:17:02.615Z,34.30
2018-08-19T16:20:07.403Z,33.80
2018-08-19T16:23:11.931Z,34.80
2018-08-19T16:26:16.557Z,35.40
2018-08-19T16:29:21.052Z,34.90
2018-08-19T16:32:25.504Z,33.70
2018-08-19T16:35:30.033Z,35.00
2018-08-19T16:38:34.559Z,34.80
2018-08-19T16:41:39.050Z,34.70
2018-08-19T16:44:43.516Z,35.30
2018-08-19T16:47:47.951Z,35.60
2018-08-19T16:50:52.473Z,35.90
2018-08-19T16:53:56.984Z,38.20
2018-08-19T16:57:01.556Z,37.80
2018-08-19T17:00:07.354Z,37.40
2018-08-19T17:03:32.967Z,36.90
2018-08-19T17:06:39.197Z,36.90
2018-08-19T17:09:43.713Z,38.10
2018-08-19T17:12:48.205Z,37.30
2018-08-19T17:15:52.739Z,37.40
2018-08-19T17:18:57.177Z,38.30
2018-08-19T17:22:07.834Z,37.90
2018-08-19T17:25:12.261Z,38.50
2018-08-19T17:28:21.656Z,39.40
2018-08-19T17:31:26.077Z,38.70
2018-08-19T17:34:30.586Z,38.90
2018-08-19T17:37:35.060Z,39.60
2018-08-19T17:40:39.572Z,40.90
2018-08-19T17:43:44.014Z,41.60
2018-08-19T17:46:48.535Z,41.50
2018-08-19T17:49:53.061Z,40.20
2018-08-19T17:52:58.710Z,41.10
2018-08-19T17:56:03.175Z,41.20
2018-08-19T17:59:07.711Z,41.20
2018-08-19T18:02:12.097Z,42.20
2018-08-19T18:05:16.544Z,42.50
2018-08-19T18:08:21.038Z,42.90
2018-08-19T18:11:25.560Z,43.10
2018-08-19T18:14:31.790Z,43.30
2018-08-19T18:17:36.354Z,43.50
2018-08-19T18:20:41.572Z,44.60
2018-08-19T18:23:48.345Z,45.90
2018-08-19T18:26:52.798Z,46.70
2018-08-19T18:29:57.223Z,47.40
2018-08-19T18:33:04.170Z,48.70
2018-08-19T18:36:08.630Z,50.30
2018-08-19T18:39:13.085Z,50.60
2018-08-19T18:42:35.193Z,51.70
2018-08-19T18:45:39.626Z,52.70
2018-08-19T18:48:44.046Z,53.20
2018-08-19T18:51:51.814Z,53.80
2018-08-19T18:54:56.253Z,54.60
2018-08-19T18:58:00.681Z,55.10
2018-08-19T19:01:05.132Z,54.90
2018-08-19T19:04:09.657Z,55.90
2018-08-19T19:07:14.165Z,56.80
2018-08-19T19:10:18.653Z,57.20
2018-08-19T19:13:24.502Z,57.30
2018-08-19T19:16:35.989Z,57.60
2018-08-19T19:19:45.679Z,57.60
2018-08-19T19:23:06.423Z,58.10
2018-08-19T19:26:11.182Z,58.20
2018-08-19T19:29:20.533Z,58.60
2018-08-19T19:32:25.458Z,58.80
2018-08-19T19:35:30.531Z,59.00
2018-08-19T19:38:39.950Z,58.90
2018-08-19T19:41:44.521Z,59.40
2018-08-19T19:44:48.955Z,59.30
2018-08-19T19:47:53.378Z,59.10
2018-08-19T19:50:57.837Z,59.40
2018-08-19T19:54:02.233Z,59.60
2018-08-19T19:57:06.707Z,59.60
2018-08-19T20:00:11.278Z,59.60
2018-08-19T20:03:15.697Z,60.70
2018-08-19T20:06:20.202Z,60.80
2018-08-19T20:09:24.733Z,60.20
2018-08-19T20:12:30.229Z,59.90
2018-08-19T20:15:34.711Z,60.20
2018-08-19T20:18:39.512Z,60.60
2018-08-19T20:21:43.963Z,61.30
2018-08-19T20:24:48.493Z,60.90
2018-08-19T20:28:23.681Z,61.50
2018-08-19T20:31:28.165Z,61.40
2018-08-19T20:34:32.687Z,62.00
2018-08-19T20:37:38.819Z,62.70
2018-08-19T20:40:43.421Z,62.20
2018-08-19T20:43:47.904Z,63.20
2018-08-19T20:46:55.981Z,63.20
2018-08-19T20:50:00.446Z,63.00
2018-08-19T20:53:04.885Z,62.70
2018-08-19T20:56:09.286Z,63.40
2018-08-19T20:59:17.394Z,63.30
2018-08-19T21:02:21.920Z,63.30
2018-08-19T21:05:27.061Z,63.60
2018-08-19T21:08:31.573Z,63.60
2018-08-19T21:11:36.112Z,63.80
2018-08-19T21:14:40.651Z,63.90
2018-08-19T21:17:45.094Z,63.70
2018-08-19T21:20:49.772Z,64.40
2018-08-19T21:23:54.212Z,64.10
2018-08-19T21:27:01.139Z,63.70
2018-08-19T21:30:05.744Z,63.60
2018-08-19T21:33:10.560Z,63.60
2018-08-19T21:36:15.017Z,63.30
2018-08-19T21:39:19.609Z,63.10
2018-08-19T21:42:24.281Z,62.80
2018-08-19T21:45:28.723Z,63.30
2018-08-19T21:48:33.157Z,63.10
2018-08-19T21:51:37.601Z,63.30
2018-08-19T21:54:42.137Z,63.20
2018-08-19T21:57:46.561Z,63.10
2018-08-19T22:01:08.301Z,63.30
2018-08-19T22:04:12.814Z,63.50
2018-08-19T22:07:17.205Z,63.90
2018-08-19T22:10:21.764Z,64.00
2018-08-19T22:13:26.206Z,64.30
2018-08-19T22:16:30.618Z,64.40
2018-08-19T22:19:35.139Z,63.20
2018-08-19T22:22:39.662Z,63.20
2018-08-19T22:25:44.139Z,63.00
2018-08-19T22:29:10.394Z,63.30
2018-08-19T22:32:14.934Z,63.40
2018-08-19T22:35:19.372Z,63.80
2018-08-19T22:38:23.830Z,64.60
2018-08-19T22:41:29.929Z,64.30
2018-08-19T22:44:34.373Z,64.80
2018-08-19T22:47:38.802Z,64.60
2018-08-19T22:50:43.332Z,64.80
2018-08-19T22:53:49.909Z,65.40
2018-08-19T22:56:54.334Z,65.00
2018-08-19T22:59:58.852Z,65.30
2018-08-19T23:03:03.297Z,65.40
2018-08-19T23:06:07.778Z,65.40
2018-08-19T23:09:12.298Z,66.00
2018-08-19T23:12:16.725Z,65.80
2018-08-19T23:15:37.897Z,66.20
2018-08-19T23:18:43.213Z,66.10
2018-08-19T23:21:47.656Z,66.60
2018-08-19T23:24:52.129Z,65.70
2018-08-19T23:27:56.554Z,66.30
2018-08-19T23:31:01.017Z,66.50
2018-08-19T23:34:05.579Z,66.40
2018-08-19T23:37:10.041Z,66.20
2018-08-19T23:40:14.566Z,66.20
2018-08-19T23:43:18.990Z,65.80
2018-08-19T23:46:23.413Z,65.80
2018-08-19T23:49:27.825Z,66.20
2018-08-19T23:52:32.260Z,65.60
2018-08-19T23:55:37.085Z,66.10
2018-08-19T23:58:45.488Z,66.60
